sensor_id;sensor_type;location;lat;lon;timestamp;P1;durP1;ratioP1;P2;durP2;ratioP2
63599;SDS011;49747;51.334;6.830;2022-12-31T00:01:57;2.03;;;0.90;;
63599;SDS011;49747;51.334;6.830;2022-12-31T00:04:24;0.90;;;0.73;;
63599;SDS011;49747;51.334;6.830;2022-12-31T00:06:50;2.05;;;0.90;;
63599;SDS011;49747;51.334;6.830;2022-12-31T00:09:17;1.35;;;0.90;;
63599;SDS011;49747;51.334;6.830;2022-12-31T00:11:43;0.98;;;0.75;;
63599;SDS011;49747;51.334;6.830;2022-12-31T00:14:10;0.80;;;0.65;;
63599;SDS011;49747;51.334;6.830;2022-12-31T00:16:38;0.80;;;0.70;;
63599;SDS011;49747;51.334;6.830;2022-12-31T00:19:07;0.70;;;0.70;;
63599;SDS011;49747;51.334;6.830;2022-12-31T00:21:38;1.40;;;0.68;;
63599;SDS011;49747;51.334;6.830;2022-12-31T00:24:06;1.00;;;0.70;;
63599;SDS011;49747;51.334;6.830;2022-12-31T00:26:33;1.55;;;0.63;;
63599;SDS011;49747;51.334;6.830;2022-12-31T00:29:01;1.20;;;0.77;;
63599;SDS011;49747;51.334;6.830;2022-12-31T00:31:32;2.22;;;0.80;;
63599;SDS011;49747;51.334;6.830;2022-12-31T00:34:01;1.48;;;0.82;;
63599;SDS011;49747;51.334;6.830;2022-12-31T00:36:30;0.40;;;0.40;;
63599;SDS011;49747;51.334;6.830;2022-12-31T00:38:59;0.88;;;0.70;;
63599;SDS011;49747;51.334;6.830;2022-12-31T00:41:27;1.35;;;0.90;;
63599;SDS011;49747;51.334;6.830;2022-12-31T00:43:54;2.40;;;1.00;;
63599;SDS011;49747;51.334;6.830;2022-12-31T00:46:21;1.95;;;0.98;;
63599;SDS011;49747;51.334;6.830;2022-12-31T00:48:48;1.40;;;1.10;;
63599;SDS011;49747;51.334;6.830;2022-12-31T00:51:16;1.52;;;1.10;;
63599;SDS011;49747;51.334;6.830;2022-12-31T00:53:44;3.92;;;1.45;;
63599;SDS011;49747;51.334;6.830;2022-12-31T00:56:18;2.13;;;1.40;;
63599;SDS011;49747;51.334;6.830;2022-12-31T00:58:46;1.90;;;1.30;;
63599;SDS011;49747;51.334;6.830;2022-12-31T01:01:15;2.05;;;1.30;;
63599;SDS011;49747;51.334;6.830;2022-12-31T01:03:53;2.45;;;1.30;;
63599;SDS011;49747;51.334;6.830;2022-12-31T01:06:23;1.73;;;0.85;;
63599;SDS011;49747;51.334;6.830;2022-12-31T01:08:50;1.30;;;0.80;;
63599;SDS011;49747;51.334;6.830;2022-12-31T01:11:17;1.52;;;1.05;;
63599;SDS011;49747;51.334;6.830;2022-12-31T01:13:55;1.45;;;0.90;;
63599;SDS011;49747;51.334;6.830;2022-12-31T01:18:57;2.40;;;1.10;;
63599;SDS011;49747;51.334;6.830;2022-12-31T01:21:24;2.92;;;1.00;;
63599;SDS011;49747;51.334;6.830;2022-12-31T01:23:51;1.35;;;0.80;;
63599;SDS011;49747;51.334;6.830;2022-12-31T01:26:18;2.10;;;1.10;;
63599;SDS011;49747;51.334;6.830;2022-12-31T01:28:45;1.83;;;1.08;;
63599;SDS011;49747;51.334;6.830;2022-12-31T01:31:13;3.00;;;1.25;;
63599;SDS011;49747;51.334;6.830;2022-12-31T01:33:41;1.73;;;1.00;;
63599;SDS011;49747;51.334;6.830;2022-12-31T01:36:09;1.65;;;1.00;;
63599;SDS011;49747;51.334;6.830;2022-12-31T01:38:38;1.17;;;1.00;;
63599;SDS011;49747;51.334;6.830;2022-12-31T01:41:06;1.58;;;1.02;;
63599;SDS011;49747;51.334;6.830;2022-12-31T01:43:41;1.35;;;1.15;;
63599;SDS011;49747;51.334;6.830;2022-12-31T01:46:15;2.28;;;1.10;;
63599;SDS011;49747;51.334;6.830;2022-12-31T01:48:50;2.05;;;1.20;;
63599;SDS011;49747;51.334;6.830;2022-12-31T01:51:20;1.20;;;1.00;;
63599;SDS011;49747;51.334;6.830;2022-12-31T01:53:48;1.52;;;1.10;;
63599;SDS011;49747;51.334;6.830;2022-12-31T01:56:15;1.35;;;0.98;;
63599;SDS011;49747;51.334;6.830;2022-12-31T01:58:44;1.58;;;1.05;;
63599;SDS011;49747;51.334;6.830;2022-12-31T02:01:16;1.92;;;1.00;;
63599;SDS011;49747;51.334;6.830;2022-12-31T02:03:53;1.25;;;0.82;;
63599;SDS011;49747;51.334;6.830;2022-12-31T02:06:28;1.85;;;0.90;;
63599;SDS011;49747;51.334;6.830;2022-12-31T02:09:02;1.45;;;0.90;;
63599;SDS011;49747;51.334;6.830;2022-12-31T02:11:30;1.13;;;0.70;;
63599;SDS011;49747;51.334;6.830;2022-12-31T02:14:03;1.02;;;0.70;;
63599;SDS011;49747;51.334;6.830;2022-12-31T02:16:35;0.60;;;0.60;;
63599;SDS011;49747;51.334;6.830;2022-12-31T02:23:09;1.23;;;0.30;;
63599;SDS011;49747;51.334;6.830;2022-12-31T02:28:39;0.30;;;0.30;;
63599;SDS011;49747;51.334;6.830;2022-12-31T02:31:33;1.27;;;0.47;;
63599;SDS011;49747;51.334;6.830;2022-12-31T02:36:40;0.32;;;0.32;;
63599;SDS011;49747;51.334;6.830;2022-12-31T02:39:10;0.60;;;0.28;;
63599;SDS011;49747;51.334;6.830;2022-12-31T02:41:39;1.55;;;0.60;;
63599;SDS011;49747;51.334;6.830;2022-12-31T02:46:53;0.40;;;0.40;;
63599;SDS011;49747;51.334;6.830;2022-12-31T02:52:17;1.45;;;0.50;;
63599;SDS011;49747;51.334;6.830;2022-12-31T02:55:02;0.50;;;0.50;;
63599;SDS011;49747;51.334;6.830;2022-12-31T03:00:27;0.47;;;0.30;;
63599;SDS011;49747;51.334;6.830;2022-12-31T03:03:16;0.75;;;0.40;;
63599;SDS011;49747;51.334;6.830;2022-12-31T03:05:45;0.30;;;0.30;;
63599;SDS011;49747;51.334;6.830;2022-12-31T03:10:50;0.95;;;0.47;;
63599;SDS011;49747;51.334;6.830;2022-12-31T03:13:17;0.40;;;0.40;;
63599;SDS011;49747;51.334;6.830;2022-12-31T03:15:46;0.60;;;0.60;;
63599;SDS011;49747;51.334;6.830;2022-12-31T03:18:14;1.35;;;0.40;;
63599;SDS011;49747;51.334;6.830;2022-12-31T03:20:43;0.50;;;0.50;;
63599;SDS011;49747;51.334;6.830;2022-12-31T03:23:36;0.40;;;0.40;;
63599;SDS011;49747;51.334;6.830;2022-12-31T03:26:05;1.27;;;0.50;;
63599;SDS011;49747;51.334;6.830;2022-12-31T03:28:39;0.40;;;0.40;;
63599;SDS011;49747;51.334;6.830;2022-12-31T03:31:07;0.73;;;0.60;;
63599;SDS011;49747;51.334;6.830;2022-12-31T03:33:37;0.45;;;0.45;;
63599;SDS011;49747;51.334;6.830;2022-12-31T03:36:07;2.55;;;0.73;;
63599;SDS011;49747;51.334;6.830;2022-12-31T03:38:37;1.65;;;0.60;;
63599;SDS011;49747;51.334;6.830;2022-12-31T03:41:04;0.50;;;0.50;;
63599;SDS011;49747;51.334;6.830;2022-12-31T03:43:31;0.52;;;0.50;;
63599;SDS011;49747;51.334;6.830;2022-12-31T03:45:57;2.92;;;0.40;;
63599;SDS011;49747;51.334;6.830;2022-12-31T03:48:26;0.50;;;0.50;;
63599;SDS011;49747;51.334;6.830;2022-12-31T03:50:53;1.58;;;0.50;;
63599;SDS011;49747;51.334;6.830;2022-12-31T03:53:20;1.30;;;0.50;;
63599;SDS011;49747;51.334;6.830;2022-12-31T03:55:52;1.27;;;0.60;;
63599;SDS011;49747;51.334;6.830;2022-12-31T03:58:20;2.83;;;0.40;;
63599;SDS011;49747;51.334;6.830;2022-12-31T04:00:47;0.50;;;0.50;;
63599;SDS011;49747;51.334;6.830;2022-12-31T04:03:14;0.55;;;0.50;;
63599;SDS011;49747;51.334;6.830;2022-12-31T04:05:41;0.40;;;0.40;;
63599;SDS011;49747;51.334;6.830;2022-12-31T04:08:07;1.38;;;0.40;;
63599;SDS011;49747;51.334;6.830;2022-12-31T04:10:34;0.50;;;0.50;;
63599;SDS011;49747;51.334;6.830;2022-12-31T04:13:01;1.05;;;0.40;;
63599;SDS011;49747;51.334;6.830;2022-12-31T04:15:29;0.73;;;0.50;;
63599;SDS011;49747;51.334;6.830;2022-12-31T04:17:56;1.23;;;0.38;;
63599;SDS011;49747;51.334;6.830;2022-12-31T04:20:22;1.05;;;0.60;;
63599;SDS011;49747;51.334;6.830;2022-12-31T04:22:49;0.45;;;0.45;;
63599;SDS011;49747;51.334;6.830;2022-12-31T04:25:17;0.73;;;0.50;;
63599;SDS011;49747;51.334;6.830;2022-12-31T04:27:44;0.35;;;0.35;;
63599;SDS011;49747;51.334;6.830;2022-12-31T04:30:11;0.90;;;0.70;;
63599;SDS011;49747;51.334;6.830;2022-12-31T04:32:38;0.68;;;0.60;;
63599;SDS011;49747;51.334;6.830;2022-12-31T04:35:05;0.40;;;0.40;;
63599;SDS011;49747;51.334;6.830;2022-12-31T04:37:32;0.98;;;0.32;;
63599;SDS011;49747;51.334;6.830;2022-12-31T04:39:59;1.65;;;0.55;;
63599;SDS011;49747;51.334;6.830;2022-12-31T04:42:32;0.85;;;0.50;;
63599;SDS011;49747;51.334;6.830;2022-12-31T04:44:59;1.80;;;0.60;;
63599;SDS011;49747;51.334;6.830;2022-12-31T04:47:25;3.42;;;0.80;;
63599;SDS011;49747;51.334;6.830;2022-12-31T04:49:52;0.70;;;0.60;;
63599;SDS011;49747;51.334;6.830;2022-12-31T04:52:18;1.13;;;0.70;;
63599;SDS011;49747;51.334;6.830;2022-12-31T04:54:45;1.58;;;0.60;;
63599;SDS011;49747;51.334;6.830;2022-12-31T04:57:11;1.38;;;0.60;;
63599;SDS011;49747;51.334;6.830;2022-12-31T04:59:38;1.48;;;0.52;;
63599;SDS011;49747;51.334;6.830;2022-12-31T05:02:04;0.98;;;0.50;;
63599;SDS011;49747;51.334;6.830;2022-12-31T05:04:31;1.23;;;0.43;;
63599;SDS011;49747;51.334;6.830;2022-12-31T05:06:58;1.90;;;0.82;;
63599;SDS011;49747;51.334;6.830;2022-12-31T05:09:24;2.03;;;0.60;;
63599;SDS011;49747;51.334;6.830;2022-12-31T05:11:52;0.68;;;0.50;;
63599;SDS011;49747;51.334;6.830;2022-12-31T05:14:19;1.88;;;0.80;;
63599;SDS011;49747;51.334;6.830;2022-12-31T05:16:45;0.70;;;0.50;;
63599;SDS011;49747;51.334;6.830;2022-12-31T05:19:12;1.15;;;0.50;;
63599;SDS011;49747;51.334;6.830;2022-12-31T05:21:39;0.85;;;0.50;;
63599;SDS011;49747;51.334;6.830;2022-12-31T05:24:05;0.88;;;0.57;;
63599;SDS011;49747;51.334;6.830;2022-12-31T05:26:33;1.13;;;0.55;;
63599;SDS011;49747;51.334;6.830;2022-12-31T05:29:00;0.70;;;0.55;;
63599;SDS011;49747;51.334;6.830;2022-12-31T05:31:26;1.15;;;0.50;;
63599;SDS011;49747;51.334;6.830;2022-12-31T05:33:53;1.75;;;0.60;;
63599;SDS011;49747;51.334;6.830;2022-12-31T05:36:19;1.83;;;0.52;;
63599;SDS011;49747;51.334;6.830;2022-12-31T05:38:46;1.15;;;0.55;;
63599;SDS011;49747;51.334;6.830;2022-12-31T05:41:12;0.98;;;0.43;;
63599;SDS011;49747;51.334;6.830;2022-12-31T05:43:39;2.08;;;0.50;;
63599;SDS011;49747;51.334;6.830;2022-12-31T05:46:05;0.68;;;0.68;;
63599;SDS011;49747;51.334;6.830;2022-12-31T05:48:32;1.50;;;0.82;;
63599;SDS011;49747;51.334;6.830;2022-12-31T05:50:58;1.17;;;0.60;;
63599;SDS011;49747;51.334;6.830;2022-12-31T05:53:25;0.43;;;0.43;;
63599;SDS011;49747;51.334;6.830;2022-12-31T05:55:51;1.75;;;0.52;;
63599;SDS011;49747;51.334;6.830;2022-12-31T05:58:18;2.33;;;0.70;;
63599;SDS011;49747;51.334;6.830;2022-12-31T06:00:44;3.03;;;0.60;;
63599;SDS011;49747;51.334;6.830;2022-12-31T06:03:11;1.13;;;0.60;;
63599;SDS011;49747;51.334;6.830;2022-12-31T06:05:39;2.05;;;0.63;;
63599;SDS011;49747;51.334;6.830;2022-12-31T06:08:07;1.65;;;0.70;;
63599;SDS011;49747;51.334;6.830;2022-12-31T06:10:34;1.88;;;0.75;;
63599;SDS011;49747;51.334;6.830;2022-12-31T06:13:01;1.38;;;0.73;;
63599;SDS011;49747;51.334;6.830;2022-12-31T06:15:28;4.03;;;0.98;;
63599;SDS011;49747;51.334;6.830;2022-12-31T06:17:55;1.05;;;0.70;;
63599;SDS011;49747;51.334;6.830;2022-12-31T06:20:21;1.20;;;0.80;;
63599;SDS011;49747;51.334;6.830;2022-12-31T06:22:48;3.58;;;0.88;;
63599;SDS011;49747;51.334;6.830;2022-12-31T06:25:14;1.20;;;0.70;;
63599;SDS011;49747;51.334;6.830;2022-12-31T06:27:41;1.00;;;0.60;;
63599;SDS011;49747;51.334;6.830;2022-12-31T06:30:08;1.75;;;0.65;;
63599;SDS011;49747;51.334;6.830;2022-12-31T06:32:35;3.70;;;0.60;;
63599;SDS011;49747;51.334;6.830;2022-12-31T06:35:02;1.27;;;0.65;;
63599;SDS011;49747;51.334;6.830;2022-12-31T06:37:29;2.15;;;1.00;;
63599;SDS011;49747;51.334;6.830;2022-12-31T06:39:55;2.22;;;0.90;;
63599;SDS011;49747;51.334;6.830;2022-12-31T06:42:22;0.80;;;0.63;;
63599;SDS011;49747;51.334;6.830;2022-12-31T06:44:48;1.73;;;0.60;;
63599;SDS011;49747;51.334;6.830;2022-12-31T06:47:15;4.32;;;0.70;;
63599;SDS011;49747;51.334;6.830;2022-12-31T06:49:41;1.02;;;0.65;;
63599;SDS011;49747;51.334;6.830;2022-12-31T06:52:08;2.20;;;0.70;;
63599;SDS011;49747;51.334;6.830;2022-12-31T06:54:35;3.30;;;0.95;;
63599;SDS011;49747;51.334;6.830;2022-12-31T06:57:01;1.75;;;0.90;;
63599;SDS011;49747;51.334;6.830;2022-12-31T06:59:28;1.88;;;0.50;;
63599;SDS011;49747;51.334;6.830;2022-12-31T07:04:46;2.10;;;0.80;;
63599;SDS011;49747;51.334;6.830;2022-12-31T07:10:27;1.48;;;0.70;;
63599;SDS011;49747;51.334;6.830;2022-12-31T07:13:05;3.72;;;1.00;;
63599;SDS011;49747;51.334;6.830;2022-12-31T07:18:50;3.28;;;1.10;;
63599;SDS011;49747;51.334;6.830;2022-12-31T07:21:39;1.25;;;0.90;;
63599;SDS011;49747;51.334;6.830;2022-12-31T07:24:07;2.28;;;0.70;;
63599;SDS011;49747;51.334;6.830;2022-12-31T07:34:49;1.85;;;0.82;;
63599;SDS011;49747;51.334;6.830;2022-12-31T07:37:25;2.88;;;1.00;;
63599;SDS011;49747;51.334;6.830;2022-12-31T07:46:14;3.25;;;0.90;;
63599;SDS011;49747;51.334;6.830;2022-12-31T07:48:43;2.85;;;0.95;;
63599;SDS011;49747;51.334;6.830;2022-12-31T07:51:10;4.53;;;1.20;;
63599;SDS011;49747;51.334;6.830;2022-12-31T07:53:37;1.50;;;0.85;;
63599;SDS011;49747;51.334;6.830;2022-12-31T07:56:05;2.50;;;0.93;;
63599;SDS011;49747;51.334;6.830;2022-12-31T08:01:01;1.92;;;0.82;;
63599;SDS011;49747;51.334;6.830;2022-12-31T08:09:06;3.15;;;0.98;;
63599;SDS011;49747;51.334;6.830;2022-12-31T08:11:42;2.60;;;0.80;;
63599;SDS011;49747;51.334;6.830;2022-12-31T08:14:20;1.92;;;0.88;;
63599;SDS011;49747;51.334;6.830;2022-12-31T08:16:47;4.68;;;0.95;;
63599;SDS011;49747;51.334;6.830;2022-12-31T08:19:31;1.52;;;0.98;;
63599;SDS011;49747;51.334;6.830;2022-12-31T08:25:06;3.65;;;0.82;;
63599;SDS011;49747;51.334;6.830;2022-12-31T08:30:16;3.33;;;0.90;;
63599;SDS011;49747;51.334;6.830;2022-12-31T08:33:09;1.63;;;0.80;;
63599;SDS011;49747;51.334;6.830;2022-12-31T08:38:08;1.55;;;0.70;;
63599;SDS011;49747;51.334;6.830;2022-12-31T08:46:22;1.95;;;0.93;;
63599;SDS011;49747;51.334;6.830;2022-12-31T08:48:54;1.65;;;0.88;;
63599;SDS011;49747;51.334;6.830;2022-12-31T08:51:21;2.72;;;0.90;;
63599;SDS011;49747;51.334;6.830;2022-12-31T08:53:50;2.85;;;0.98;;
63599;SDS011;49747;51.334;6.830;2022-12-31T08:56:21;4.32;;;1.00;;
63599;SDS011;49747;51.334;6.830;2022-12-31T09:01:23;4.78;;;1.40;;
63599;SDS011;49747;51.334;6.830;2022-12-31T09:06:33;6.15;;;1.25;;
63599;SDS011;49747;51.334;6.830;2022-12-31T09:11:47;1.20;;;1.10;;
63599;SDS011;49747;51.334;6.830;2022-12-31T09:19:32;3.13;;;1.42;;
63599;SDS011;49747;51.334;6.830;2022-12-31T09:21:59;4.28;;;1.50;;
63599;SDS011;49747;51.334;6.830;2022-12-31T09:24:26;3.92;;;1.50;;
63599;SDS011;49747;51.334;6.830;2022-12-31T09:34:53;3.53;;;1.52;;
63599;SDS011;49747;51.334;6.830;2022-12-31T09:40:15;2.33;;;1.10;;
63599;SDS011;49747;51.334;6.830;2022-12-31T09:51:27;5.70;;;1.73;;
63599;SDS011;49747;51.334;6.830;2022-12-31T09:57:40;4.60;;;2.00;;
63599;SDS011;49747;51.334;6.830;2022-12-31T10:03:15;3.95;;;1.80;;
63599;SDS011;49747;51.334;6.830;2022-12-31T10:11:25;4.47;;;1.70;;
63599;SDS011;49747;51.334;6.830;2022-12-31T10:14:21;2.70;;;1.25;;
63599;SDS011;49747;51.334;6.830;2022-12-31T10:30:37;3.88;;;1.10;;
63599;SDS011;49747;51.334;6.830;2022-12-31T10:55:30;3.75;;;1.42;;
63599;SDS011;49747;51.334;6.830;2022-12-31T10:58:08;2.60;;;1.45;;
63599;SDS011;49747;51.334;6.830;2022-12-31T11:00:53;5.35;;;1.30;;
63599;SDS011;49747;51.334;6.830;2022-12-31T11:15:15;5.18;;;1.70;;
63599;SDS011;49747;51.334;6.830;2022-12-31T11:18:07;4.55;;;1.60;;
63599;SDS011;49747;51.334;6.830;2022-12-31T11:23:30;2.88;;;1.42;;
63599;SDS011;49747;51.334;6.830;2022-12-31T11:28:47;6.85;;;1.40;;
63599;SDS011;49747;51.334;6.830;2022-12-31T11:31:26;4.20;;;1.50;;
63599;SDS011;49747;51.334;6.830;2022-12-31T11:37:17;3.63;;;1.45;;
63599;SDS011;49747;51.334;6.830;2022-12-31T11:42:55;7.82;;;1.55;;
63599;SDS011;49747;51.334;6.830;2022-12-31T11:48:35;5.15;;;1.40;;
63599;SDS011;49747;51.334;6.830;2022-12-31T11:56:37;5.55;;;1.40;;
63599;SDS011;49747;51.334;6.830;2022-12-31T11:59:08;3.42;;;1.30;;
63599;SDS011;49747;51.334;6.830;2022-12-31T12:04:17;3.70;;;1.25;;
63599;SDS011;49747;51.334;6.830;2022-12-31T12:06:47;3.63;;;1.58;;
63599;SDS011;49747;51.334;6.830;2022-12-31T12:09:14;3.85;;;1.40;;
63599;SDS011;49747;51.334;6.830;2022-12-31T12:11:56;5.25;;;1.20;;
63599;SDS011;49747;51.334;6.830;2022-12-31T12:14:32;5.38;;;1.17;;
63599;SDS011;49747;51.334;6.830;2022-12-31T12:17:01;4.85;;;1.85;;
63599;SDS011;49747;51.334;6.830;2022-12-31T12:19:32;10.98;;;2.47;;
63599;SDS011;49747;51.334;6.830;2022-12-31T12:22:18;4.97;;;1.45;;
63599;SDS011;49747;51.334;6.830;2022-12-31T12:24:53;5.63;;;1.40;;
63599;SDS011;49747;51.334;6.830;2022-12-31T12:27:43;3.75;;;1.67;;
63599;SDS011;49747;51.334;6.830;2022-12-31T12:30:10;3.78;;;1.90;;
63599;SDS011;49747;51.334;6.830;2022-12-31T12:32:57;6.22;;;1.70;;
63599;SDS011;49747;51.334;6.830;2022-12-31T12:35:26;4.90;;;1.77;;
63599;SDS011;49747;51.334;6.830;2022-12-31T12:40:27;5.07;;;1.45;;
63599;SDS011;49747;51.334;6.830;2022-12-31T12:42:59;5.00;;;1.75;;
63599;SDS011;49747;51.334;6.830;2022-12-31T12:45:28;4.47;;;2.25;;
63599;SDS011;49747;51.334;6.830;2022-12-31T12:48:08;4.55;;;1.70;;
63599;SDS011;49747;51.334;6.830;2022-12-31T12:50:43;1.83;;;1.10;;
63599;SDS011;49747;51.334;6.830;2022-12-31T12:53:18;6.47;;;1.58;;
63599;SDS011;49747;51.334;6.830;2022-12-31T12:58:29;5.47;;;1.40;;
63599;SDS011;49747;51.334;6.830;2022-12-31T13:15:16;6.00;;;2.05;;
63599;SDS011;49747;51.334;6.830;2022-12-31T13:17:55;6.18;;;2.17;;
63599;SDS011;49747;51.334;6.830;2022-12-31T13:20:51;5.32;;;1.63;;
63599;SDS011;49747;51.334;6.830;2022-12-31T13:23:34;2.90;;;1.30;;
63599;SDS011;49747;51.334;6.830;2022-12-31T13:26:25;2.33;;;1.20;;
63599;SDS011;49747;51.334;6.830;2022-12-31T13:29:15;5.07;;;1.88;;
63599;SDS011;49747;51.334;6.830;2022-12-31T13:31:45;4.13;;;1.50;;
63599;SDS011;49747;51.334;6.830;2022-12-31T13:34:21;3.53;;;1.60;;
63599;SDS011;49747;51.334;6.830;2022-12-31T13:36:52;4.65;;;1.50;;
63599;SDS011;49747;51.334;6.830;2022-12-31T13:39:26;6.03;;;2.17;;
63599;SDS011;49747;51.334;6.830;2022-12-31T13:42:00;3.40;;;1.60;;
63599;SDS011;49747;51.334;6.830;2022-12-31T13:44:37;7.72;;;1.52;;
63599;SDS011;49747;51.334;6.830;2022-12-31T13:47:10;3.60;;;1.70;;
63599;SDS011;49747;51.334;6.830;2022-12-31T13:52:41;5.22;;;1.80;;
63599;SDS011;49747;51.334;6.830;2022-12-31T13:55:33;4.15;;;1.70;;
63599;SDS011;49747;51.334;6.830;2022-12-31T13:58:28;2.72;;;1.55;;
63599;SDS011;49747;51.334;6.830;2022-12-31T14:09:22;4.15;;;1.80;;
63599;SDS011;49747;51.334;6.830;2022-12-31T14:12:15;6.35;;;2.17;;
63599;SDS011;49747;51.334;6.830;2022-12-31T14:14:52;9.32;;;2.38;;
63599;SDS011;49747;51.334;6.830;2022-12-31T14:17:27;4.75;;;1.40;;
63599;SDS011;49747;51.334;6.830;2022-12-31T14:22:52;6.30;;;1.80;;
63599;SDS011;49747;51.334;6.830;2022-12-31T14:25:21;9.15;;;2.58;;
63599;SDS011;49747;51.334;6.830;2022-12-31T14:27:53;2.33;;;1.65;;
63599;SDS011;49747;51.334;6.830;2022-12-31T14:30:22;15.20;;;6.55;;
63599;SDS011;49747;51.334;6.830;2022-12-31T14:32:58;6.07;;;1.67;;
63599;SDS011;49747;51.334;6.830;2022-12-31T14:35:45;5.32;;;1.75;;
63599;SDS011;49747;51.334;6.830;2022-12-31T14:41:08;3.42;;;1.50;;
63599;SDS011;49747;51.334;6.830;2022-12-31T14:49:33;5.55;;;1.60;;
63599;SDS011;49747;51.334;6.830;2022-12-31T14:52:21;6.40;;;1.90;;
63599;SDS011;49747;51.334;6.830;2022-12-31T14:54:57;3.28;;;1.92;;
63599;SDS011;49747;51.334;6.830;2022-12-31T14:57:57;4.30;;;1.80;;
63599;SDS011;49747;51.334;6.830;2022-12-31T15:00:52;2.67;;;1.70;;
63599;SDS011;49747;51.334;6.830;2022-12-31T15:03:22;6.68;;;1.92;;
63599;SDS011;49747;51.334;6.830;2022-12-31T15:11:49;4.97;;;1.98;;
63599;SDS011;49747;51.334;6.830;2022-12-31T15:22:46;3.50;;;1.58;;
63599;SDS011;49747;51.334;6.830;2022-12-31T15:26:00;5.40;;;2.10;;
63599;SDS011;49747;51.334;6.830;2022-12-31T15:28:07;4.90;;;1.88;;
63599;SDS011;49747;51.334;6.830;2022-12-31T15:31:17;5.30;;;1.88;;
63599;SDS011;49747;51.334;6.830;2022-12-31T15:33:52;5.22;;;2.00;;
63599;SDS011;49747;51.334;6.830;2022-12-31T15:36:23;4.90;;;1.70;;
63599;SDS011;49747;51.334;6.830;2022-12-31T15:39:02;3.85;;;1.88;;
63599;SDS011;49747;51.334;6.830;2022-12-31T15:41:47;19.40;;;5.55;;
63599;SDS011;49747;51.334;6.830;2022-12-31T15:44:48;8.15;;;2.17;;
63599;SDS011;49747;51.334;6.830;2022-12-31T15:49:57;3.85;;;2.20;;
63599;SDS011;49747;51.334;6.830;2022-12-31T15:55:40;3.10;;;1.50;;
63599;SDS011;49747;51.334;6.830;2022-12-31T15:58:13;2.80;;;1.60;;
63599;SDS011;49747;51.334;6.830;2022-12-31T16:03:20;3.95;;;1.80;;
63599;SDS011;49747;51.334;6.830;2022-12-31T16:05:58;4.07;;;1.80;;
63599;SDS011;49747;51.334;6.830;2022-12-31T16:08:28;4.80;;;1.42;;
63599;SDS011;49747;51.334;6.830;2022-12-31T16:10:57;4.07;;;1.73;;
63599;SDS011;49747;51.334;6.830;2022-12-31T16:13:25;3.58;;;1.70;;
63599;SDS011;49747;51.334;6.830;2022-12-31T16:16:04;4.13;;;1.85;;
63599;SDS011;49747;51.334;6.830;2022-12-31T16:18:39;7.05;;;1.95;;
63599;SDS011;49747;51.334;6.830;2022-12-31T16:24:00;3.70;;;1.88;;
63599;SDS011;49747;51.334;6.830;2022-12-31T16:26:31;4.25;;;1.83;;
63599;SDS011;49747;51.334;6.830;2022-12-31T16:29:04;6.20;;;1.70;;
63599;SDS011;49747;51.334;6.830;2022-12-31T16:31:31;3.63;;;1.73;;
63599;SDS011;49747;51.334;6.830;2022-12-31T16:34:05;4.93;;;2.13;;
63599;SDS011;49747;51.334;6.830;2022-12-31T16:36:37;5.20;;;1.83;;
63599;SDS011;49747;51.334;6.830;2022-12-31T16:39:21;3.83;;;2.00;;
63599;SDS011;49747;51.334;6.830;2022-12-31T16:41:51;4.20;;;2.13;;
63599;SDS011;49747;51.334;6.830;2022-12-31T16:44:31;5.70;;;2.22;;
63599;SDS011;49747;51.334;6.830;2022-12-31T16:46:59;5.28;;;2.10;;
63599;SDS011;49747;51.334;6.830;2022-12-31T16:49:28;6.00;;;2.30;;
63599;SDS011;49747;51.334;6.830;2022-12-31T16:51:59;5.28;;;2.35;;
63599;SDS011;49747;51.334;6.830;2022-12-31T16:54:29;5.13;;;3.08;;
63599;SDS011;49747;51.334;6.830;2022-12-31T16:57:00;4.32;;;2.20;;
63599;SDS011;49747;51.334;6.830;2022-12-31T16:59:28;5.60;;;2.10;;
63599;SDS011;49747;51.334;6.830;2022-12-31T17:02:02;4.32;;;2.05;;
63599;SDS011;49747;51.334;6.830;2022-12-31T17:04:34;3.20;;;1.73;;
63599;SDS011;49747;51.334;6.830;2022-12-31T17:10:00;7.53;;;2.50;;
63599;SDS011;49747;51.334;6.830;2022-12-31T17:12:35;4.63;;;2.00;;
63599;SDS011;49747;51.334;6.830;2022-12-31T17:15:39;6.55;;;2.47;;
63599;SDS011;49747;51.334;6.830;2022-12-31T17:18:12;4.43;;;2.08;;
63599;SDS011;49747;51.334;6.830;2022-12-31T17:20:45;3.40;;;1.80;;
63599;SDS011;49747;51.334;6.830;2022-12-31T17:23:16;4.60;;;2.03;;
63599;SDS011;49747;51.334;6.830;2022-12-31T17:25:48;3.75;;;2.08;;
63599;SDS011;49747;51.334;6.830;2022-12-31T17:28:26;4.47;;;2.28;;
63599;SDS011;49747;51.334;6.830;2022-12-31T17:30:58;6.63;;;2.53;;
63599;SDS011;49747;51.334;6.830;2022-12-31T17:33:45;12.30;;;2.65;;
63599;SDS011;49747;51.334;6.830;2022-12-31T17:36:28;4.03;;;2.35;;
63599;SDS011;49747;51.334;6.830;2022-12-31T17:38:55;3.78;;;2.20;;
63599;SDS011;49747;51.334;6.830;2022-12-31T17:41:42;3.97;;;2.60;;
63599;SDS011;49747;51.334;6.830;2022-12-31T17:44:10;6.95;;;2.40;;
63599;SDS011;49747;51.334;6.830;2022-12-31T17:46:43;6.45;;;2.75;;
63599;SDS011;49747;51.334;6.830;2022-12-31T17:49:10;4.32;;;2.17;;
63599;SDS011;49747;51.334;6.830;2022-12-31T17:51:39;5.05;;;2.00;;
63599;SDS011;49747;51.334;6.830;2022-12-31T17:54:13;3.75;;;2.47;;
63599;SDS011;49747;51.334;6.830;2022-12-31T17:56:41;9.00;;;2.20;;
63599;SDS011;49747;51.334;6.830;2022-12-31T17:59:21;7.63;;;2.25;;
63599;SDS011;49747;51.334;6.830;2022-12-31T18:01:51;4.43;;;2.00;;
63599;SDS011;49747;51.334;6.830;2022-12-31T18:04:18;4.90;;;1.98;;
63599;SDS011;49747;51.334;6.830;2022-12-31T18:06:46;5.97;;;2.25;;
63599;SDS011;49747;51.334;6.830;2022-12-31T18:09:12;4.45;;;2.22;;
63599;SDS011;49747;51.334;6.830;2022-12-31T18:11:41;5.70;;;2.03;;
63599;SDS011;49747;51.334;6.830;2022-12-31T18:14:09;6.03;;;1.92;;
63599;SDS011;49747;51.334;6.830;2022-12-31T18:16:39;6.20;;;2.25;;
63599;SDS011;49747;51.334;6.830;2022-12-31T18:19:09;7.30;;;1.92;;
63599;SDS011;49747;51.334;6.830;2022-12-31T18:24:26;6.28;;;2.33;;
63599;SDS011;49747;51.334;6.830;2022-12-31T18:26:52;6.35;;;2.05;;
63599;SDS011;49747;51.334;6.830;2022-12-31T18:29:19;5.05;;;2.13;;
63599;SDS011;49747;51.334;6.830;2022-12-31T18:31:47;4.32;;;2.28;;
63599;SDS011;49747;51.334;6.830;2022-12-31T18:34:15;5.45;;;2.25;;
63599;SDS011;49747;51.334;6.830;2022-12-31T18:36:43;4.72;;;2.15;;
63599;SDS011;49747;51.334;6.830;2022-12-31T18:39:10;8.05;;;2.22;;
63599;SDS011;49747;51.334;6.830;2022-12-31T18:41:38;6.40;;;2.30;;
63599;SDS011;49747;51.334;6.830;2022-12-31T18:44:09;5.13;;;2.28;;
63599;SDS011;49747;51.334;6.830;2022-12-31T18:46:36;3.33;;;1.85;;
63599;SDS011;49747;51.334;6.830;2022-12-31T18:49:03;6.05;;;2.17;;
63599;SDS011;49747;51.334;6.830;2022-12-31T18:51:30;5.68;;;2.30;;
63599;SDS011;49747;51.334;6.830;2022-12-31T18:54:01;7.53;;;2.90;;
63599;SDS011;49747;51.334;6.830;2022-12-31T18:56:28;7.78;;;3.55;;
63599;SDS011;49747;51.334;6.830;2022-12-31T18:58:55;10.20;;;3.10;;
63599;SDS011;49747;51.334;6.830;2022-12-31T19:01:29;5.95;;;2.53;;
63599;SDS011;49747;51.334;6.830;2022-12-31T19:03:58;6.95;;;2.90;;
63599;SDS011;49747;51.334;6.830;2022-12-31T19:06:27;6.50;;;2.35;;
63599;SDS011;49747;51.334;6.830;2022-12-31T19:08:55;7.80;;;2.38;;
63599;SDS011;49747;51.334;6.830;2022-12-31T19:11:22;7.85;;;2.70;;
63599;SDS011;49747;51.334;6.830;2022-12-31T19:13:49;5.53;;;2.80;;
63599;SDS011;49747;51.334;6.830;2022-12-31T19:16:15;4.28;;;2.25;;
63599;SDS011;49747;51.334;6.830;2022-12-31T19:18:43;6.43;;;2.22;;
63599;SDS011;49747;51.334;6.830;2022-12-31T19:21:14;4.75;;;2.70;;
63599;SDS011;49747;51.334;6.830;2022-12-31T19:23:46;6.03;;;2.95;;
63599;SDS011;49747;51.334;6.830;2022-12-31T19:26:13;11.70;;;2.95;;
63599;SDS011;49747;51.334;6.830;2022-12-31T19:28:42;4.53;;;2.30;;
63599;SDS011;49747;51.334;6.830;2022-12-31T19:31:09;4.25;;;2.30;;
63599;SDS011;49747;51.334;6.830;2022-12-31T19:33:35;5.18;;;2.63;;